Time;durP1;ratioP1;P1;durP2;ratioP2;P2;SDS_P1;SDS_P2;PMS_P1;PMS_P2;Temp;Humidity;BMP_temperature;BMP_pressure;BME280_temperature;BME280_humidity;BME280_pressure;Samples;Min_cycle;Max_cycle;Signal;HPM_P1;HPM_P2
2022/09/29 18:17:56;;;;;;;10.00;4.80;;;9.10;99.90;;;;;;5087358;28;20676;-60
2022/09/29 18:20:22;;;;;;;7.28;4.55;;;8.90;99.90;;;;;;5070808;28;20123;-59
2022/09/29 18:22:48;;;;;;;8.05;5.22;;;8.90;99.90;;;;;;5067027;28;20099;-58
2022/09/29 18:25:16;;;;;;;9.40;4.78;;;9.00;99.90;;;;;;5066507;28;20021;-56
2022/09/29 18:27:46;;;;;;;6.05;4.07;;;9.00;99.90;;;;;;5065154;28;20415;-56
2022/09/29 18:30:19;;;;;;;8.13;4.70;;;9.10;99.90;;;;;;5065861;28;20053;-60
2022/09/29 18:32:46;;;;;;;7.32;4.20;;;9.10;99.90;;;;;;5065907;28;20020;-55
2022/09/29 18:35:15;;;;;;;7.72;4.45;;;9.20;99.90;;;;;;5066179;28;20031;-63
2022/09/29 18:37:41;;;;;;;10.43;5.13;;;9.20;99.90;;;;;;5066110;28;20086;-59
2022/09/29 18:40:07;;;;;;;10.43;6.18;;;9.10;99.90;;;;;;5066362;28;20029;-59
2022/09/29 18:42:33;;;;;;;8.75;5.78;;;9.10;99.90;;;;;;5066422;28;20025;-58
2022/09/29 18:44:59;;;;;;;8.02;5.50;;;9.10;99.90;;;;;;5064808;28;20020;-57
2022/09/29 18:47:25;;;;;;;9.13;5.43;;;9.00;99.90;;;;;;5066002;28;20465;-55
2022/09/29 18:49:51;;;;;;;7.80;5.10;;;8.90;99.90;;;;;;5067571;28;20071;-58
2022/09/29 18:52:17;;;;;;;9.15;5.10;;;8.90;99.90;;;;;;5068927;28;20021;-57
2022/09/29 18:54:42;;;;;;;6.53;4.95;;;8.90;99.90;;;;;;5066594;28;20028;-55
2022/09/29 18:57:12;;;;;;;8.73;5.10;;;8.90;99.90;;;;;;5065181;28;20037;-57
2022/09/29 18:59:38;;;;;;;7.22;4.85;;;8.80;99.90;;;;;;5063819;28;20021;-58
2022/09/29 19:02:03;;;;;;;9.70;5.07;;;8.80;99.90;;;;;;5065491;28;20039;-54
2022/09/29 19:04:29;;;;;;;10.13;4.88;;;8.70;99.90;;;;;;5066164;28;20013;-55
2022/09/29 19:06:55;;;;;;;7.90;4.47;;;8.70;99.90;;;;;;5061842;28;20116;-61
2022/09/29 19:09:20;;;;;;;7.28;4.65;;;8.60;99.90;;;;;;5063338;28;20049;-57
2022/09/29 19:11:47;;;;;;;7.53;4.72;;;8.60;99.90;;;;;;5065114;28;20107;-57
2022/09/29 19:14:12;;;;;;;9.82;5.32;;;8.60;99.90;;;;;;5065043;28;20021;-56
2022/09/29 19:16:38;;;;;;;9.27;5.72;;;8.60;99.90;;;;;;5065344;28;20040;-60
2022/09/29 19:19:06;;;;;;;6.32;4.20;;;8.60;99.90;;;;;;5065028;28;20431;-61
2022/09/29 19:21:32;;;;;;;7.22;4.18;;;8.50;99.90;;;;;;5064257;28;20028;-59
2022/09/29 19:23:57;;;;;;;6.72;4.05;;;8.50;99.90;;;;;;5065779;28;20027;-61
2022/09/29 19:26:23;;;;;;;9.00;4.57;;;8.50;99.90;;;;;;5065254;28;20116;-60
2022/09/29 19:28:49;;;;;;;8.95;5.13;;;8.40;99.90;;;;;;5053196;28;20020;-57
2022/09/29 19:31:20;;;;;;;7.28;5.13;;;8.40;99.90;;;;;;5052329;28;20108;-59
2022/09/29 19:33:47;;;;;;;10.48;5.45;;;8.30;99.90;;;;;;5050971;28;20148;-59
2022/09/29 19:36:16;;;;;;;6.95;4.32;;;8.30;99.90;;;;;;5051078;28;20045;-57
2022/09/29 19:38:42;;;;;;;7.32;4.63;;;8.20;99.90;;;;;;5052969;28;20024;-59
2022/09/29 19:41:14;;;;;;;7.35;4.18;;;8.20;99.90;;;;;;5051665;28;20031;-59
2022/09/29 19:43:40;;;;;;;6.05;3.80;;;8.20;99.90;;;;;;5052248;28;20028;-54
2022/09/29 19:46:09;;;;;;;5.95;3.95;;;8.10;99.90;;;;;;5051460;28;20041;-62
2022/09/29 19:48:36;;;;;;;4.90;3.47;;;8.10;99.90;;;;;;5051495;28;20021;-56
2022/09/29 19:53:46;;;;;;;6.75;4.35;;;8.00;99.90;;;;;;5052012;28;20040;-56
2022/09/29 19:56:12;;;;;;;7.15;5.18;;;8.00;99.90;;;;;;5050894;28;20025;-56
2022/09/29 19:58:39;;;;;;;7.38;4.97;;;8.00;99.90;;;;;;5050592;28;20021;-55
2022/09/29 20:01:06;;;;;;;7.22;4.97;;;8.00;99.90;;;;;;5051940;28;20015;-61
2022/09/29 20:03:32;;;;;;;7.10;5.20;;;7.90;99.90;;;;;;5049779;28;20032;-59
2022/09/29 20:05:59;;;;;;;6.47;4.60;;;7.90;99.90;;;;;;5051511;28;20021;-56
2022/09/29 20:08:25;;;;;;;6.63;4.32;;;7.90;99.90;;;;;;5050057;28;20071;-59
2022/09/29 20:10:51;;;;;;;8.40;4.35;;;7.90;99.90;;;;;;5065732;28;20033;-52
2022/09/29 20:13:16;;;;;;;6.95;4.45;;;7.80;99.90;;;;;;5071594;28;20521;-56
2022/09/29 20:15:43;;;;;;;8.05;4.63;;;7.80;99.90;;;;;;5070456;28;20469;-58
2022/09/29 20:18:09;;;;;;;6.88;4.97;;;7.70;99.90;;;;;;5071772;28;20055;-55
2022/09/29 20:20:37;;;;;;;7.80;4.40;;;7.70;99.90;;;;;;5070709;28;20445;-55
2022/09/29 20:23:03;;;;;;;8.68;5.35;;;7.70;99.90;;;;;;5069332;28;20021;-54
2022/09/29 20:25:28;;;;;;;7.90;5.30;;;7.60;99.90;;;;;;5071622;28;20031;-59
2022/09/29 20:27:54;;;;;;;9.27;5.18;;;7.60;99.90;;;;;;5064413;28;20485;-60
2022/09/29 20:30:20;;;;;;;8.25;4.70;;;7.60;99.90;;;;;;5061721;28;20024;-54
2022/09/29 20:32:46;;;;;;;8.52;5.22;;;7.60;99.90;;;;;;5057159;28;20033;-59
2022/09/29 20:35:12;;;;;;;7.80;4.63;;;7.60;99.90;;;;;;5053058;28;20461;-61
2022/09/29 20:37:38;;;;;;;8.13;5.05;;;7.50;99.90;;;;;;5052472;28;20025;-56
2022/09/29 20:40:04;;;;;;;9.75;5.40;;;7.60;99.90;;;;;;5051798;28;20044;-53
2022/09/29 20:42:32;;;;;;;8.48;4.97;;;7.60;99.90;;;;;;5052937;28;20449;-54
2022/09/29 20:44:58;;;;;;;8.80;5.00;;;7.60;99.90;;;;;;5054464;28;20060;-59
2022/09/29 20:47:24;;;;;;;9.63;5.00;;;7.60;99.90;;;;;;5064694;28;20029;-58
2022/09/29 20:49:50;;;;;;;9.20;4.90;;;7.60;99.90;;;;;;5059206;28;20021;-57
2022/09/29 20:52:15;;;;;;;9.70;5.88;;;7.50;99.90;;;;;;5062397;28;20021;-55
2022/09/29 20:54:41;;;;;;;9.50;5.50;;;7.50;99.90;;;;;;5064920;28;20138;-54
2022/09/29 20:57:07;;;;;;;8.95;5.35;;;7.50;99.90;;;;;;5066255;28;20055;-54
2022/09/29 20:59:34;;;;;;;10.27;4.72;;;7.50;99.90;;;;;;5064728;28;20016;-57
2022/09/29 21:02:01;;;;;;;9.18;5.38;;;7.50;99.90;;;;;;5066344;28;20032;-58
2022/09/29 21:04:27;;;;;;;9.98;5.95;;;7.50;99.90;;;;;;5061891;28;20005;-57
2022/09/29 21:06:52;;;;;;;10.93;5.68;;;7.50;99.90;;;;;;5057070;28;20063;-61
2022/09/29 21:09:21;;;;;;;12.80;6.53;;;7.50;99.90;;;;;;5063760;28;20048;-62
2022/09/29 21:11:48;;;;;;;12.60;6.30;;;7.50;99.90;;;;;;5059540;28;20021;-64
2022/09/29 21:14:17;;;;;;;10.05;5.50;;;7.40;99.90;;;;;;5072252;28;20040;-60
2022/09/29 21:16:47;;;;;;;9.27;4.95;;;7.40;99.90;;;;;;5071751;28;20503;-57
2022/09/29 21:19:13;;;;;;;8.18;4.75;;;7.30;99.90;;;;;;5071191;28;20037;-57
2022/09/29 21:21:40;;;;;;;8.30;4.95;;;7.30;99.90;;;;;;5071566;28;20469;-55
2022/09/29 21:24:07;;;;;;;8.68;4.93;;;7.30;99.90;;;;;;5071048;28;20099;-61
2022/09/29 21:26:33;;;;;;;8.20;5.07;;;7.30;99.90;;;;;;5069932;28;20024;-64
2022/09/29 21:29:00;;;;;;;7.97;4.75;;;7.20;99.90;;;;;;5070094;28;20085;-58
2022/09/29 21:31:34;;;;;;;7.80;5.00;;;7.20;99.90;;;;;;5069355;28;20028;-56
2022/09/29 21:34:02;;;;;;;7.60;4.68;;;7.10;99.90;;;;;;5070978;28;20108;-56
2022/09/29 21:36:30;;;;;;;7.00;4.25;;;7.10;99.90;;;;;;5071532;28;20545;-57
2022/09/29 21:38:59;;;;;;;7.38;4.93;;;7.10;99.90;;;;;;5071897;28;20552;-68
2022/09/29 21:41:30;;;;;;;7.70;4.43;;;7.00;99.90;;;;;;5071520;28;20023;-56
2022/09/29 21:43:59;;;;;;;6.43;4.43;;;7.00;99.90;;;;;;5071628;28;20392;-64
2022/09/29 21:46:31;;;;;;;7.50;4.45;;;7.00;99.90;;;;;;5071988;28;20075;-58
2022/09/29 21:48:58;;;;;;;;;;;7.00;99.90;;;;;;5071702;28;20032;-60
2022/09/29 21:51:26;;;;;;;6.28;4.20;;;7.00;99.90;;;;;;5071644;28;19904;-55
2022/09/29 21:53:53;;;;;;;6.82;3.80;;;7.00;99.90;;;;;;5071580;28;20096;-65
2022/09/29 21:56:22;;;;;;;7.35;4.75;;;7.00;99.90;;;;;;5071025;28;20082;-61
2022/09/29 21:58:50;;;;;;;6.70;4.10;;;6.90;99.90;;;;;;5071754;28;20058;-56
2022/09/29 22:01:16;;;;;;;9.68;4.05;;;7.00;99.90;;;;;;5071216;28;20066;-61
2022/09/29 22:03:44;;;;;;;6.18;4.05;;;7.00;99.90;;;;;;5071825;28;20025;-59
2022/09/29 22:06:15;;;;;;;7.00;4.15;;;6.90;99.90;;;;;;5071759;28;20415;-58
2022/09/29 22:08:42;;;;;;;6.80;4.35;;;6.90;99.90;;;;;;5071118;28;20079;-61
2022/09/29 22:11:08;;;;;;;8.07;4.88;;;6.90;99.90;;;;;;5071053;28;20020;-53
2022/09/29 22:13:35;;;;;;;7.60;4.45;;;6.90;99.90;;;;;;5071641;28;20032;-58
2022/09/29 22:16:24;;;;;;;7.00;4.20;;;6.90;99.90;;;;;;5070399;28;20380;-59
2022/09/29 22:18:51;;;;;;;6.82;4.18;;;6.80;99.90;;;;;;5071207;28;20033;-56
2022/09/29 22:21:20;;;;;;;6.13;3.70;;;6.70;99.90;;;;;;5071767;28;20099;-56
2022/09/29 22:23:46;;;;;;;7.85;3.60;;;6.60;99.90;;;;;;5070568;28;20480;-59
2022/09/29 22:26:14;;;;;;;8.23;3.58;;;6.60;99.90;;;;;;5071661;28;20017;-57
2022/09/29 22:28:42;;;;;;;6.13;3.83;;;6.60;99.90;;;;;;5071468;28;20381;-59
2022/09/29 22:31:09;;;;;;;5.50;3.67;;;6.60;99.90;;;;;;5070561;28;20444;-60
2022/09/29 22:33:36;;;;;;;7.57;3.63;;;6.50;99.90;;;;;;5071600;28;20500;-59
2022/09/29 22:36:02;;;;;;;6.68;3.60;;;6.60;99.90;;;;;;5071343;28;20025;-58
2022/09/29 22:38:29;;;;;;;7.38;3.88;;;6.50;99.90;;;;;;5070739;28;20016;-57
2022/09/29 22:40:55;;;;;;;5.70;3.78;;;6.50;99.90;;;;;;5071414;28;20099;-55
2022/09/29 22:43:20;;;;;;;7.13;3.95;;;6.50;99.90;;;;;;5070594;28;20028;-59
2022/09/29 22:45:47;;;;;;;5.90;3.78;;;6.50;99.90;;;;;;5071408;28;20012;-58
2022/09/29 22:48:14;;;;;;;7.50;4.03;;;6.50;99.90;;;;;;5071267;28;20063;-56
2022/09/29 22:50:43;;;;;;;6.28;3.85;;;6.50;99.90;;;;;;5070927;28;20078;-58
2022/09/29 22:53:09;;;;;;;7.70;3.85;;;6.50;99.90;;;;;;5071180;28;20042;-55
2022/09/29 22:55:35;;;;;;;7.10;3.72;;;6.50;99.90;;;;;;5071263;28;20028;-55
2022/09/29 22:58:01;;;;;;;6.28;3.70;;;6.50;99.90;;;;;;5070204;28;20032;-54
2022/09/29 23:00:26;;;;;;;5.72;3.58;;;6.40;99.90;;;;;;5069844;28;20117;-58
2022/09/29 23:02:52;;;;;;;5.30;3.47;;;6.50;99.90;;;;;;5071795;28;20031;-56
2022/09/29 23:05:18;;;;;;;8.52;3.85;;;6.40;99.90;;;;;;5067216;28;20032;-54
2022/09/29 23:07:43;;;;;;;5.20;3.00;;;6.40;99.90;;;;;;5054512;28;20022;-59
2022/09/29 23:10:10;;;;;;;5.70;3.28;;;6.30;99.90;;;;;;5055753;28;20546;-55
2022/09/29 23:12:39;;;;;;;4.78;3.30;;;6.30;99.90;;;;;;5055307;28;20025;-60
2022/09/29 23:15:06;;;;;;;5.30;3.33;;;6.30;99.90;;;;;;5054693;28;20481;-65
2022/09/29 23:17:32;;;;;;;4.50;2.75;;;6.20;99.90;;;;;;5054654;28;20056;-68
2022/09/29 23:19:58;;;;;;;6.18;3.22;;;6.20;99.90;;;;;;5054218;28;20018;-65
2022/09/29 23:22:25;;;;;;;4.57;2.78;;;6.20;99.90;;;;;;5054911;28;20027;-71
2022/09/29 23:24:50;;;;;;;7.20;3.33;;;6.20;99.90;;;;;;5054604;28;20489;-71
2022/09/29 23:27:17;;;;;;;5.15;2.88;;;6.20;99.90;;;;;;5054445;28;20027;-64
2022/09/29 23:29:42;;;;;;;5.78;3.58;;;6.20;99.90;;;;;;5054951;28;20021;-70
2022/09/29 23:32:08;;;;;;;5.57;2.97;;;6.20;99.90;;;;;;5054092;28;20025;-65
2022/09/29 23:34:34;;;;;;;4.38;2.83;;;6.10;99.90;;;;;;5053833;28;20075;-70
2022/09/29 23:37:00;;;;;;;4.78;3.00;;;6.00;99.90;;;;;;5054171;28;20102;-61
2022/09/29 23:39:25;;;;;;;5.65;2.22;;;5.90;99.90;;;;;;5054401;28;20021;-67
2022/09/29 23:41:52;;;;;;;4.78;2.58;;;5.80;99.90;;;;;;5053908;28;20096;-62
2022/09/29 23:44:23;;;;;;;2.55;2.10;;;5.70;99.90;;;;;;5054435;28;20095;-58
2022/09/29 23:46:49;;;;;;;4.05;2.50;;;5.60;99.90;;;;;;5053715;28;20136;-59
2022/09/29 23:49:25;;;;;;;3.50;2.40;;;5.60;99.90;;;;;;5054244;28;20021;-56
2022/09/29 23:51:55;;;;;;;4.53;2.60;;;5.60;99.90;;;;;;5052614;28;20112;-56
2022/09/29 23:54:22;;;;;;;3.80;2.40;;;5.60;99.90;;;;;;5053384;28;20052;-61
2022/09/29 23:56:50;;;;;;;2.92;2.28;;;5.60;99.90;;;;;;5053572;28;20076;-55
2022/09/29 23:59:15;;;;;;;3.58;2.17;;;5.50;99.90;;;;;;5054055;28;20025;-59
